sensor_id;sensor_type;location;lat;lon;timestamp;temperature;humidity
5334;DHT22;2689;50.954;7.116;2022-08-01T00:01:32;21.40;99.90
5334;DHT22;2689;50.954;7.116;2022-08-01T00:03:59;21.40;99.90
5334;DHT22;2689;50.954;7.116;2022-08-01T00:06:26;21.30;99.90
5334;DHT22;2689;50.954;7.116;2022-08-01T00:08:53;21.30;99.90
5334;DHT22;2689;50.954;7.116;2022-08-01T00:11:20;21.30;99.90
5334;DHT22;2689;50.954;7.116;2022-08-01T00:13:47;21.30;99.90
5334;DHT22;2689;50.954;7.116;2022-08-01T00:16:14;21.30;99.90
5334;DHT22;2689;50.954;7.116;2022-08-01T00:18:42;21.30;99.90
5334;DHT22;2689;50.954;7.116;2022-08-01T00:21:09;21.30;99.90
5334;DHT22;2689;50.954;7.116;2022-08-01T00:23:36;21.20;99.90
5334;DHT22;2689;50.954;7.116;2022-08-01T00:26:02;21.20;99.90
5334;DHT22;2689;50.954;7.116;2022-08-01T00:28:29;21.10;99.90
5334;DHT22;2689;50.954;7.116;2022-08-01T00:30:56;21.10;99.90
5334;DHT22;2689;50.954;7.116;2022-08-01T00:33:22;21.10;99.90
5334;DHT22;2689;50.954;7.116;2022-08-01T00:35:51;21.10;99.90
5334;DHT22;2689;50.954;7.116;2022-08-01T00:38:17;21.00;99.90
5334;DHT22;2689;50.954;7.116;2022-08-01T00:40:44;20.90;99.90
5334;DHT22;2689;50.954;7.116;2022-08-01T00:43:11;20.90;99.90
5334;DHT22;2689;50.954;7.116;2022-08-01T00:45:38;20.80;99.90
5334;DHT22;2689;50.954;7.116;2022-08-01T00:48:05;20.70;99.90
5334;DHT22;2689;50.954;7.116;2022-08-01T00:50:32;20.80;99.90
5334;DHT22;2689;50.954;7.116;2022-08-01T00:53:00;20.70;99.90
5334;DHT22;2689;50.954;7.116;2022-08-01T00:55:28;20.60;99.90
5334;DHT22;2689;50.954;7.116;2022-08-01T00:57:55;20.50;99.90
5334;DHT22;2689;50.954;7.116;2022-08-01T01:00:23;20.50;99.90
5334;DHT22;2689;50.954;7.116;2022-08-01T01:02:50;20.40;99.90
5334;DHT22;2689;50.954;7.116;2022-08-01T01:05:17;20.50;99.90
5334;DHT22;2689;50.954;7.116;2022-08-01T01:07:50;20.50;99.90
5334;DHT22;2689;50.954;7.116;2022-08-01T01:10:27;20.40;99.90
5334;DHT22;2689;50.954;7.116;2022-08-01T01:13:02;20.40;99.90
5334;DHT22;2689;50.954;7.116;2022-08-01T01:15:33;20.40;99.90
5334;DHT22;2689;50.954;7.116;2022-08-01T01:18:04;20.40;99.90
5334;DHT22;2689;50.954;7.116;2022-08-01T01:20:37;20.30;99.90
5334;DHT22;2689;50.954;7.116;2022-08-01T01:23:24;20.30;99.90
5334;DHT22;2689;50.954;7.116;2022-08-01T01:26:21;20.30;99.90
5334;DHT22;2689;50.954;7.116;2022-08-01T01:28:59;20.30;99.90
5334;DHT22;2689;50.954;7.116;2022-08-01T01:31:28;20.30;99.90
5334;DHT22;2689;50.954;7.116;2022-08-01T01:33:58;20.40;99.90
5334;DHT22;2689;50.954;7.116;2022-08-01T01:36:26;20.40;99.90
5334;DHT22;2689;50.954;7.116;2022-08-01T01:38:56;20.40;99.90
5334;DHT22;2689;50.954;7.116;2022-08-01T01:41:24;20.40;99.90
5334;DHT22;2689;50.954;7.116;2022-08-01T01:43:51;20.40;99.90
5334;DHT22;2689;50.954;7.116;2022-08-01T01:46:23;20.40;99.90
5334;DHT22;2689;50.954;7.116;2022-08-01T01:48:54;20.40;99.90
5334;DHT22;2689;50.954;7.116;2022-08-01T01:51:22;20.30;99.90
5334;DHT22;2689;50.954;7.116;2022-08-01T01:53:52;20.20;99.90
5334;DHT22;2689;50.954;7.116;2022-08-01T01:56:20;20.20;99.90
5334;DHT22;2689;50.954;7.116;2022-08-01T01:58:48;20.20;99.90
5334;DHT22;2689;50.954;7.116;2022-08-01T02:01:18;20.20;99.90
5334;DHT22;2689;50.954;7.116;2022-08-01T02:03:47;20.20;99.90
5334;DHT22;2689;50.954;7.116;2022-08-01T02:06:15;20.20;99.90
5334;DHT22;2689;50.954;7.116;2022-08-01T02:08:44;20.20;99.90
5334;DHT22;2689;50.954;7.116;2022-08-01T02:11:11;20.20;99.90
5334;DHT22;2689;50.954;7.116;2022-08-01T02:13:53;20.20;99.90
5334;DHT22;2689;50.954;7.116;2022-08-01T02:16:25;20.20;99.90
5334;DHT22;2689;50.954;7.116;2022-08-01T02:18:52;20.20;99.90
5334;DHT22;2689;50.954;7.116;2022-08-01T02:21:23;20.20;99.90
5334;DHT22;2689;50.954;7.116;2022-08-01T02:23:54;20.20;99.90
5334;DHT22;2689;50.954;7.116;2022-08-01T02:26:22;20.10;99.90
5334;DHT22;2689;50.954;7.116;2022-08-01T02:28:54;20.10;99.90
5334;DHT22;2689;50.954;7.116;2022-08-01T02:31:24;20.10;99.90
5334;DHT22;2689;50.954;7.116;2022-08-01T02:33:56;20.10;99.90
5334;DHT22;2689;50.954;7.116;2022-08-01T02:36:25;20.10;99.90
5334;DHT22;2689;50.954;7.116;2022-08-01T02:38:54;20.10;99.90
5334;DHT22;2689;50.954;7.116;2022-08-01T02:41:22;20.20;99.90
5334;DHT22;2689;50.954;7.116;2022-08-01T02:43:52;20.10;99.90
5334;DHT22;2689;50.954;7.116;2022-08-01T02:46:26;20.10;99.90
5334;DHT22;2689;50.954;7.116;2022-08-01T02:48:56;20.20;99.90
5334;DHT22;2689;50.954;7.116;2022-08-01T02:51:25;20.20;99.90
5334;DHT22;2689;50.954;7.116;2022-08-01T02:53:53;20.20;99.90
5334;DHT22;2689;50.954;7.116;2022-08-01T02:56:21;20.20;99.90
5334;DHT22;2689;50.954;7.116;2022-08-01T02:58:50;20.20;99.90
5334;DHT22;2689;50.954;7.116;2022-08-01T03:01:18;20.20;99.90
5334;DHT22;2689;50.954;7.116;2022-08-01T03:03:47;20.20;99.90
5334;DHT22;2689;50.954;7.116;2022-08-01T03:06:15;20.30;99.90
5334;DHT22;2689;50.954;7.116;2022-08-01T03:08:42;20.30;99.90
5334;DHT22;2689;50.954;7.116;2022-08-01T03:11:10;20.30;99.90
5334;DHT22;2689;50.954;7.116;2022-08-01T03:13:38;20.30;99.90
5334;DHT22;2689;50.954;7.116;2022-08-01T03:16:07;20.20;99.90
5334;DHT22;2689;50.954;7.116;2022-08-01T03:18:35;20.30;99.90
5334;DHT22;2689;50.954;7.116;2022-08-01T03:21:04;20.20;99.90
5334;DHT22;2689;50.954;7.116;2022-08-01T03:23:32;20.20;99.90
5334;DHT22;2689;50.954;7.116;2022-08-01T03:26:01;20.20;99.90
5334;DHT22;2689;50.954;7.116;2022-08-01T03:28:29;20.30;99.90
5334;DHT22;2689;50.954;7.116;2022-08-01T03:30:57;20.20;99.90
5334;DHT22;2689;50.954;7.116;2022-08-01T03:33:25;20.20;99.90
5334;DHT22;2689;50.954;7.116;2022-08-01T03:35:54;20.20;99.90
5334;DHT22;2689;50.954;7.116;2022-08-01T03:38:24;20.20;99.90
5334;DHT22;2689;50.954;7.116;2022-08-01T03:40:53;20.20;99.90
5334;DHT22;2689;50.954;7.116;2022-08-01T03:43:26;20.20;99.90
5334;DHT22;2689;50.954;7.116;2022-08-01T03:46:01;20.30;99.90
5334;DHT22;2689;50.954;7.116;2022-08-01T03:48:32;20.20;99.90
5334;DHT22;2689;50.954;7.116;2022-08-01T03:51:02;20.20;99.90
5334;DHT22;2689;50.954;7.116;2022-08-01T03:53:32;20.30;99.90
5334;DHT22;2689;50.954;7.116;2022-08-01T03:56:00;20.20;99.90
5334;DHT22;2689;50.954;7.116;2022-08-01T03:58:29;20.20;99.90
5334;DHT22;2689;50.954;7.116;2022-08-01T04:00:56;20.20;99.90
5334;DHT22;2689;50.954;7.116;2022-08-01T04:03:24;20.20;99.90
5334;DHT22;2689;50.954;7.116;2022-08-01T04:05:50;20.10;99.90
5334;DHT22;2689;50.954;7.116;2022-08-01T04:08:17;20.20;99.90
5334;DHT22;2689;50.954;7.116;2022-08-01T04:10:45;20.20;99.90
5334;DHT22;2689;50.954;7.116;2022-08-01T04:13:12;20.20;99.90
5334;DHT22;2689;50.954;7.116;2022-08-01T04:15:39;20.20;99.90
5334;DHT22;2689;50.954;7.116;2022-08-01T04:18:06;20.20;99.90
5334;DHT22;2689;50.954;7.116;2022-08-01T04:20:32;20.20;99.90
5334;DHT22;2689;50.954;7.116;2022-08-01T04:22:59;20.20;99.90
5334;DHT22;2689;50.954;7.116;2022-08-01T04:25:29;20.20;99.90
5334;DHT22;2689;50.954;7.116;2022-08-01T04:28:01;20.20;99.90
5334;DHT22;2689;50.954;7.116;2022-08-01T04:30:33;20.20;99.90
5334;DHT22;2689;50.954;7.116;2022-08-01T04:33:01;20.20;99.90
5334;DHT22;2689;50.954;7.116;2022-08-01T04:35:30;20.20;99.90
5334;DHT22;2689;50.954;7.116;2022-08-01T04:37:59;20.20;99.90
5334;DHT22;2689;50.954;7.116;2022-08-01T04:40:28;20.30;99.90
5334;DHT22;2689;50.954;7.116;2022-08-01T04:42:55;20.20;99.90
5334;DHT22;2689;50.954;7.116;2022-08-01T04:45:24;20.20;99.90
5334;DHT22;2689;50.954;7.116;2022-08-01T04:47:52;20.20;99.90
5334;DHT22;2689;50.954;7.116;2022-08-01T04:50:19;20.20;99.90
5334;DHT22;2689;50.954;7.116;2022-08-01T04:52:47;20.30;99.90
5334;DHT22;2689;50.954;7.116;2022-08-01T04:55:14;20.30;99.90
5334;DHT22;2689;50.954;7.116;2022-08-01T04:57:44;20.30;99.90
5334;DHT22;2689;50.954;7.116;2022-08-01T05:00:12;20.30;99.90
5334;DHT22;2689;50.954;7.116;2022-08-01T05:02:40;20.40;99.90
5334;DHT22;2689;50.954;7.116;2022-08-01T05:05:08;20.40;99.90
5334;DHT22;2689;50.954;7.116;2022-08-01T05:07:35;20.40;99.90
5334;DHT22;2689;50.954;7.116;2022-08-01T05:10:03;20.40;99.90
5334;DHT22;2689;50.954;7.116;2022-08-01T05:12:30;20.30;99.90
5334;DHT22;2689;50.954;7.116;2022-08-01T05:14:58;20.40;99.90
5334;DHT22;2689;50.954;7.116;2022-08-01T05:17:24;20.40;99.90
5334;DHT22;2689;50.954;7.116;2022-08-01T05:19:53;20.40;99.90
5334;DHT22;2689;50.954;7.116;2022-08-01T05:22:19;20.40;99.90
5334;DHT22;2689;50.954;7.116;2022-08-01T05:24:46;20.40;99.90
5334;DHT22;2689;50.954;7.116;2022-08-01T05:27:13;20.50;99.90
5334;DHT22;2689;50.954;7.116;2022-08-01T05:29:40;20.50;99.90
5334;DHT22;2689;50.954;7.116;2022-08-01T05:32:07;20.50;99.90
5334;DHT22;2689;50.954;7.116;2022-08-01T05:34:34;20.60;99.90
5334;DHT22;2689;50.954;7.116;2022-08-01T05:37:03;20.60;99.90
5334;DHT22;2689;50.954;7.116;2022-08-01T05:39:29;20.70;99.90
5334;DHT22;2689;50.954;7.116;2022-08-01T05:41:56;20.70;99.90
5334;DHT22;2689;50.954;7.116;2022-08-01T05:44:23;20.70;99.90
5334;DHT22;2689;50.954;7.116;2022-08-01T05:46:50;20.70;99.90
5334;DHT22;2689;50.954;7.116;2022-08-01T05:49:17;20.70;99.90
5334;DHT22;2689;50.954;7.116;2022-08-01T05:51:44;20.60;99.90
5334;DHT22;2689;50.954;7.116;2022-08-01T05:54:13;20.70;99.90
5334;DHT22;2689;50.954;7.116;2022-08-01T05:56:40;20.70;99.90
5334;DHT22;2689;50.954;7.116;2022-08-01T05:59:07;20.80;99.90
5334;DHT22;2689;50.954;7.116;2022-08-01T06:01:33;20.80;99.90
5334;DHT22;2689;50.954;7.116;2022-08-01T06:04:00;20.90;99.90
5334;DHT22;2689;50.954;7.116;2022-08-01T06:06:27;21.00;99.90
5334;DHT22;2689;50.954;7.116;2022-08-01T06:08:54;20.80;99.90
5334;DHT22;2689;50.954;7.116;2022-08-01T06:11:22;20.70;99.90
5334;DHT22;2689;50.954;7.116;2022-08-01T06:13:48;20.80;99.90
5334;DHT22;2689;50.954;7.116;2022-08-01T06:16:15;20.80;99.90
5334;DHT22;2689;50.954;7.116;2022-08-01T06:18:42;20.70;99.90
5334;DHT22;2689;50.954;7.116;2022-08-01T06:21:09;20.70;99.90
5334;DHT22;2689;50.954;7.116;2022-08-01T06:23:36;20.70;99.90
5334;DHT22;2689;50.954;7.116;2022-08-01T06:26:03;20.70;99.90
5334;DHT22;2689;50.954;7.116;2022-08-01T06:28:31;20.70;99.90
5334;DHT22;2689;50.954;7.116;2022-08-01T06:30:58;20.80;99.90
5334;DHT22;2689;50.954;7.116;2022-08-01T06:33:25;20.80;99.90
5334;DHT22;2689;50.954;7.116;2022-08-01T06:35:52;20.80;99.90
5334;DHT22;2689;50.954;7.116;2022-08-01T06:38:19;20.90;99.90
5334;DHT22;2689;50.954;7.116;2022-08-01T06:40:46;21.00;99.90
5334;DHT22;2689;50.954;7.116;2022-08-01T06:43:13;21.20;99.90
5334;DHT22;2689;50.954;7.116;2022-08-01T06:45:42;21.30;99.90
5334;DHT22;2689;50.954;7.116;2022-08-01T06:48:08;21.40;99.90
5334;DHT22;2689;50.954;7.116;2022-08-01T06:50:35;21.50;99.90
5334;DHT22;2689;50.954;7.116;2022-08-01T06:53:02;21.60;99.90
5334;DHT22;2689;50.954;7.116;2022-08-01T06:55:29;21.60;99.90
5334;DHT22;2689;50.954;7.116;2022-08-01T06:57:56;21.60;99.90
5334;DHT22;2689;50.954;7.116;2022-08-01T07:00:24;21.80;99.90
5334;DHT22;2689;50.954;7.116;2022-08-01T07:02:54;21.90;99.90
5334;DHT22;2689;50.954;7.116;2022-08-01T07:05:21;22.00;99.90
5334;DHT22;2689;50.954;7.116;2022-08-01T07:07:48;22.00;99.90
5334;DHT22;2689;50.954;7.116;2022-08-01T07:10:15;21.90;99.90
5334;DHT22;2689;50.954;7.116;2022-08-01T07:12:42;22.00;99.90
5334;DHT22;2689;50.954;7.116;2022-08-01T07:15:10;22.00;99.90
5334;DHT22;2689;50.954;7.116;2022-08-01T07:17:38;22.00;99.90
5334;DHT22;2689;50.954;7.116;2022-08-01T07:20:09;22.00;99.90
5334;DHT22;2689;50.954;7.116;2022-08-01T07:22:36;22.00;99.90
5334;DHT22;2689;50.954;7.116;2022-08-01T07:25:05;21.90;99.90
5334;DHT22;2689;50.954;7.116;2022-08-01T07:27:32;21.90;99.90
5334;DHT22;2689;50.954;7.116;2022-08-01T07:29:59;21.90;99.90
5334;DHT22;2689;50.954;7.116;2022-08-01T07:32:26;22.10;99.90
5334;DHT22;2689;50.954;7.116;2022-08-01T07:34:55;22.20;99.90
5334;DHT22;2689;50.954;7.116;2022-08-01T07:37:23;22.30;99.90
5334;DHT22;2689;50.954;7.116;2022-08-01T07:39:50;22.20;99.90
5334;DHT22;2689;50.954;7.116;2022-08-01T07:42:16;22.30;99.90
5334;DHT22;2689;50.954;7.116;2022-08-01T07:44:43;22.30;99.90
5334;DHT22;2689;50.954;7.116;2022-08-01T07:47:10;22.30;99.90
5334;DHT22;2689;50.954;7.116;2022-08-01T07:49:36;22.50;99.90
5334;DHT22;2689;50.954;7.116;2022-08-01T07:52:04;22.60;99.90
5334;DHT22;2689;50.954;7.116;2022-08-01T07:54:32;23.00;99.90
5334;DHT22;2689;50.954;7.116;2022-08-01T07:56:59;23.10;99.90
5334;DHT22;2689;50.954;7.116;2022-08-01T07:59:26;23.30;99.90
5334;DHT22;2689;50.954;7.116;2022-08-01T08:01:53;23.40;99.90
5334;DHT22;2689;50.954;7.116;2022-08-01T08:04:19;23.30;99.90
5334;DHT22;2689;50.954;7.116;2022-08-01T08:06:46;23.30;99.90
5334;DHT22;2689;50.954;7.116;2022-08-01T08:09:14;23.20;99.90
5334;DHT22;2689;50.954;7.116;2022-08-01T08:11:43;23.20;99.90
5334;DHT22;2689;50.954;7.116;2022-08-01T08:14:10;23.10;99.90
5334;DHT22;2689;50.954;7.116;2022-08-01T08:16:37;23.10;99.90
5334;DHT22;2689;50.954;7.116;2022-08-01T08:19:04;23.00;99.90
5334;DHT22;2689;50.954;7.116;2022-08-01T08:21:31;23.00;99.90
5334;DHT22;2689;50.954;7.116;2022-08-01T08:23:57;22.90;99.90
5334;DHT22;2689;50.954;7.116;2022-08-01T08:26:43;22.90;99.90
5334;DHT22;2689;50.954;7.116;2022-08-01T08:29:10;23.20;99.90
5334;DHT22;2689;50.954;7.116;2022-08-01T08:31:36;23.40;99.90
5334;DHT22;2689;50.954;7.116;2022-08-01T08:34:03;23.80;99.90
5334;DHT22;2689;50.954;7.116;2022-08-01T08:36:30;24.40;99.30
5334;DHT22;2689;50.954;7.116;2022-08-01T08:38:57;25.00;97.00
5334;DHT22;2689;50.954;7.116;2022-08-01T08:41:25;25.40;96.10
5334;DHT22;2689;50.954;7.116;2022-08-01T08:43:54;25.80;95.50
5334;DHT22;2689;50.954;7.116;2022-08-01T08:46:23;26.50;92.60
5334;DHT22;2689;50.954;7.116;2022-08-01T08:48:51;26.60;91.80
5334;DHT22;2689;50.954;7.116;2022-08-01T08:51:19;26.90;91.00
5334;DHT22;2689;50.954;7.116;2022-08-01T08:53:46;26.80;91.20
5334;DHT22;2689;50.954;7.116;2022-08-01T08:56:14;26.20;90.90
5334;DHT22;2689;50.954;7.116;2022-08-01T08:58:44;25.80;92.00
5334;DHT22;2689;50.954;7.116;2022-08-01T09:01:13;25.40;93.20
5334;DHT22;2689;50.954;7.116;2022-08-01T09:03:40;25.20;93.80
5334;DHT22;2689;50.954;7.116;2022-08-01T09:06:07;24.90;94.10
5334;DHT22;2689;50.954;7.116;2022-08-01T09:08:34;24.60;94.50
5334;DHT22;2689;50.954;7.116;2022-08-01T09:11:00;24.30;95.20
5334;DHT22;2689;50.954;7.116;2022-08-01T09:13:27;24.30;95.90
5334;DHT22;2689;50.954;7.116;2022-08-01T09:15:55;24.30;96.00
5334;DHT22;2689;50.954;7.116;2022-08-01T09:18:30;24.30;95.30
5334;DHT22;2689;50.954;7.116;2022-08-01T09:21:13;24.40;94.70
5334;DHT22;2689;50.954;7.116;2022-08-01T09:23:43;24.60;95.10
5334;DHT22;2689;50.954;7.116;2022-08-01T09:26:12;25.60;94.10
5334;DHT22;2689;50.954;7.116;2022-08-01T09:28:39;26.40;91.80
5334;DHT22;2689;50.954;7.116;2022-08-01T09:31:08;26.60;91.00
5334;DHT22;2689;50.954;7.116;2022-08-01T09:33:51;26.40;90.20
5334;DHT22;2689;50.954;7.116;2022-08-01T09:36:18;26.10;90.90
5334;DHT22;2689;50.954;7.116;2022-08-01T09:38:45;26.20;91.60
5334;DHT22;2689;50.954;7.116;2022-08-01T09:41:12;26.60;90.10
5334;DHT22;2689;50.954;7.116;2022-08-01T09:43:39;28.10;85.50
5334;DHT22;2689;50.954;7.116;2022-08-01T09:46:10;28.90;80.50
5334;DHT22;2689;50.954;7.116;2022-08-01T09:48:37;30.10;76.00
5334;DHT22;2689;50.954;7.116;2022-08-01T09:51:06;30.10;74.00
5334;DHT22;2689;50.954;7.116;2022-08-01T09:53:48;30.30;73.00
5334;DHT22;2689;50.954;7.116;2022-08-01T09:56:15;29.30;72.10
5334;DHT22;2689;50.954;7.116;2022-08-01T09:58:52;28.40;75.10
5334;DHT22;2689;50.954;7.116;2022-08-01T10:01:20;27.70;78.30
5334;DHT22;2689;50.954;7.116;2022-08-01T10:03:54;27.20;81.30
5334;DHT22;2689;50.954;7.116;2022-08-01T10:06:31;27.20;81.10
5334;DHT22;2689;50.954;7.116;2022-08-01T10:08:57;27.60;80.40
5334;DHT22;2689;50.954;7.116;2022-08-01T10:11:24;28.50;77.50
5334;DHT22;2689;50.954;7.116;2022-08-01T10:13:52;29.80;74.30
5334;DHT22;2689;50.954;7.116;2022-08-01T10:16:19;30.70;73.20
5334;DHT22;2689;50.954;7.116;2022-08-01T10:18:46;30.70;68.80
5334;DHT22;2689;50.954;7.116;2022-08-01T10:21:13;30.40;67.80
5334;DHT22;2689;50.954;7.116;2022-08-01T10:23:42;30.00;68.70
5334;DHT22;2689;50.954;7.116;2022-08-01T10:26:10;29.60;70.20
5334;DHT22;2689;50.954;7.116;2022-08-01T10:28:39;29.50;72.00
5334;DHT22;2689;50.954;7.116;2022-08-01T10:31:07;30.00;71.90
5334;DHT22;2689;50.954;7.116;2022-08-01T10:33:36;31.20;67.30
5334;DHT22;2689;50.954;7.116;2022-08-01T10:36:05;32.10;62.70
5334;DHT22;2689;50.954;7.116;2022-08-01T10:38:33;32.70;61.20
5334;DHT22;2689;50.954;7.116;2022-08-01T10:41:03;32.00;59.30
5334;DHT22;2689;50.954;7.116;2022-08-01T10:43:30;30.90;63.10
5334;DHT22;2689;50.954;7.116;2022-08-01T10:45:57;30.20;64.50
5334;DHT22;2689;50.954;7.116;2022-08-01T10:48:29;30.60;66.30
5334;DHT22;2689;50.954;7.116;2022-08-01T10:50:59;30.80;64.80
5334;DHT22;2689;50.954;7.116;2022-08-01T10:53:28;29.60;65.30
5334;DHT22;2689;50.954;7.116;2022-08-01T10:55:59;29.10;68.50
5334;DHT22;2689;50.954;7.116;2022-08-01T10:58:29;28.50;68.80
5334;DHT22;2689;50.954;7.116;2022-08-01T11:01:21;29.10;71.70
5334;DHT22;2689;50.954;7.116;2022-08-01T11:04:02;29.80;67.20
5334;DHT22;2689;50.954;7.116;2022-08-01T11:06:41;29.40;67.80
5334;DHT22;2689;50.954;7.116;2022-08-01T11:09:24;29.40;67.30
5334;DHT22;2689;50.954;7.116;2022-08-01T11:12:02;29.90;67.90
5334;DHT22;2689;50.954;7.116;2022-08-01T11:14:33;30.60;64.00
5334;DHT22;2689;50.954;7.116;2022-08-01T11:17:30;30.70;62.70
5334;DHT22;2689;50.954;7.116;2022-08-01T11:20:10;31.40;61.60
5334;DHT22;2689;50.954;7.116;2022-08-01T11:26:10;32.90;56.80
5334;DHT22;2689;50.954;7.116;2022-08-01T11:28:37;32.40;56.40
5334;DHT22;2689;50.954;7.116;2022-08-01T11:31:31;31.40;57.90
5334;DHT22;2689;50.954;7.116;2022-08-01T11:33:59;31.40;57.80
5334;DHT22;2689;50.954;7.116;2022-08-01T11:36:26;31.80;57.10
5334;DHT22;2689;50.954;7.116;2022-08-01T11:39:15;31.70;57.60
5334;DHT22;2689;50.954;7.116;2022-08-01T11:41:44;31.60;57.50
5334;DHT22;2689;50.954;7.116;2022-08-01T11:44:13;31.50;56.20
5334;DHT22;2689;50.954;7.116;2022-08-01T11:46:55;31.50;57.20
5334;DHT22;2689;50.954;7.116;2022-08-01T11:49:32;31.10;57.40
5334;DHT22;2689;50.954;7.116;2022-08-01T11:52:02;31.00;58.40
5334;DHT22;2689;50.954;7.116;2022-08-01T11:54:31;31.50;57.20
5334;DHT22;2689;50.954;7.116;2022-08-01T11:56:59;32.10;55.20
5334;DHT22;2689;50.954;7.116;2022-08-01T11:59:27;32.70;55.60
5334;DHT22;2689;50.954;7.116;2022-08-01T12:01:56;32.10;54.80
5334;DHT22;2689;50.954;7.116;2022-08-01T12:04:22;31.50;55.70
5334;DHT22;2689;50.954;7.116;2022-08-01T12:06:49;31.00;57.30
5334;DHT22;2689;50.954;7.116;2022-08-01T12:09:17;30.20;58.70
5334;DHT22;2689;50.954;7.116;2022-08-01T12:11:45;29.50;61.20
5334;DHT22;2689;50.954;7.116;2022-08-01T12:14:19;28.90;62.90
5334;DHT22;2689;50.954;7.116;2022-08-01T12:16:51;29.00;63.10
5334;DHT22;2689;50.954;7.116;2022-08-01T12:19:21;28.90;62.40
5334;DHT22;2689;50.954;7.116;2022-08-01T12:22:12;29.60;61.50
5334;DHT22;2689;50.954;7.116;2022-08-01T12:24:41;30.60;59.40
5334;DHT22;2689;50.954;7.116;2022-08-01T12:27:09;30.80;56.70
5334;DHT22;2689;50.954;7.116;2022-08-01T12:29:39;30.90;57.60
5334;DHT22;2689;50.954;7.116;2022-08-01T12:32:22;30.80;55.40
5334;DHT22;2689;50.954;7.116;2022-08-01T12:34:51;30.20;56.40
5334;DHT22;2689;50.954;7.116;2022-08-01T12:37:18;30.00;57.30
5334;DHT22;2689;50.954;7.116;2022-08-01T12:39:46;29.20;59.20
5334;DHT22;2689;50.954;7.116;2022-08-01T12:42:13;28.20;62.70
5334;DHT22;2689;50.954;7.116;2022-08-01T12:44:42;28.10;64.70
5334;DHT22;2689;50.954;7.116;2022-08-01T12:47:10;28.10;64.20
5334;DHT22;2689;50.954;7.116;2022-08-01T12:49:37;28.00;64.50
5334;DHT22;2689;50.954;7.116;2022-08-01T12:52:06;27.90;65.30
5334;DHT22;2689;50.954;7.116;2022-08-01T12:55:00;28.20;64.00
5334;DHT22;2689;50.954;7.116;2022-08-01T12:57:27;28.40;62.50
5334;DHT22;2689;50.954;7.116;2022-08-01T13:00:05;28.40;62.50
5334;DHT22;2689;50.954;7.116;2022-08-01T13:02:33;28.80;61.30
5334;DHT22;2689;50.954;7.116;2022-08-01T13:05:00;28.80;59.40
5334;DHT22;2689;50.954;7.116;2022-08-01T13:07:37;28.90;59.10
5334;DHT22;2689;50.954;7.116;2022-08-01T13:10:04;28.80;59.20
5334;DHT22;2689;50.954;7.116;2022-08-01T13:12:31;28.30;59.70
5334;DHT22;2689;50.954;7.116;2022-08-01T13:14:58;28.60;60.50
5334;DHT22;2689;50.954;7.116;2022-08-01T13:17:31;28.50;59.80
5334;DHT22;2689;50.954;7.116;2022-08-01T13:19:58;29.10;58.50
5334;DHT22;2689;50.954;7.116;2022-08-01T13:22:32;29.80;57.00
5334;DHT22;2689;50.954;7.116;2022-08-01T13:25:11;30.30;56.00
5334;DHT22;2689;50.954;7.116;2022-08-01T13:27:38;30.90;55.70
5334;DHT22;2689;50.954;7.116;2022-08-01T13:30:12;31.30;54.70
5334;DHT22;2689;50.954;7.116;2022-08-01T13:32:39;31.00;54.70
5334;DHT22;2689;50.954;7.116;2022-08-01T13:35:09;30.60;55.40
5334;DHT22;2689;50.954;7.116;2022-08-01T13:37:38;30.60;56.00
5334;DHT22;2689;50.954;7.116;2022-08-01T13:40:07;30.90;55.40
5334;DHT22;2689;50.954;7.116;2022-08-01T13:42:36;30.60;55.10
5334;DHT22;2689;50.954;7.116;2022-08-01T13:45:04;30.50;55.40
5334;DHT22;2689;50.954;7.116;2022-08-01T13:47:32;30.50;53.90
5334;DHT22;2689;50.954;7.116;2022-08-01T13:49:59;30.60;53.50
5334;DHT22;2689;50.954;7.116;2022-08-01T13:52:28;30.20;53.60
5334;DHT22;2689;50.954;7.116;2022-08-01T13:54:54;30.00;54.70
5334;DHT22;2689;50.954;7.116;2022-08-01T13:57:21;29.60;55.20
5334;DHT22;2689;50.954;7.116;2022-08-01T13:59:49;29.50;55.60
5334;DHT22;2689;50.954;7.116;2022-08-01T14:02:16;29.30;56.10
5334;DHT22;2689;50.954;7.116;2022-08-01T14:04:43;28.90;55.80
5334;DHT22;2689;50.954;7.116;2022-08-01T14:07:10;28.40;56.60
5334;DHT22;2689;50.954;7.116;2022-08-01T14:09:37;28.30;57.80
5334;DHT22;2689;50.954;7.116;2022-08-01T14:12:05;28.20;57.60
5334;DHT22;2689;50.954;7.116;2022-08-01T14:14:32;28.10;57.60
5334;DHT22;2689;50.954;7.116;2022-08-01T14:17:00;28.10;58.10
5334;DHT22;2689;50.954;7.116;2022-08-01T14:19:28;28.10;58.50
5334;DHT22;2689;50.954;7.116;2022-08-01T14:21:54;28.00;59.10
5334;DHT22;2689;50.954;7.116;2022-08-01T14:24:22;27.70;59.40
5334;DHT22;2689;50.954;7.116;2022-08-01T14:26:49;27.60;59.80
5334;DHT22;2689;50.954;7.116;2022-08-01T14:29:15;27.60;59.30
5334;DHT22;2689;50.954;7.116;2022-08-01T14:31:42;27.50;59.50
5334;DHT22;2689;50.954;7.116;2022-08-01T14:34:10;27.50;60.40
5334;DHT22;2689;50.954;7.116;2022-08-01T14:36:38;27.40;59.80
5334;DHT22;2689;50.954;7.116;2022-08-01T14:39:05;27.40;59.70
5334;DHT22;2689;50.954;7.116;2022-08-01T14:41:32;27.50;60.40
5334;DHT22;2689;50.954;7.116;2022-08-01T14:43:59;27.60;59.50
5334;DHT22;2689;50.954;7.116;2022-08-01T14:46:26;27.60;59.30
5334;DHT22;2689;50.954;7.116;2022-08-01T14:48:53;27.70;58.80
5334;DHT22;2689;50.954;7.116;2022-08-01T14:51:21;27.80;57.80
5334;DHT22;2689;50.954;7.116;2022-08-01T14:53:48;27.70;57.90
5334;DHT22;2689;50.954;7.116;2022-08-01T14:56:14;27.70;57.70
5334;DHT22;2689;50.954;7.116;2022-08-01T14:58:42;27.70;57.70
5334;DHT22;2689;50.954;7.116;2022-08-01T15:01:09;27.90;58.10
5334;DHT22;2689;50.954;7.116;2022-08-01T15:03:36;28.00;57.50
5334;DHT22;2689;50.954;7.116;2022-08-01T15:06:03;28.10;56.80
5334;DHT22;2689;50.954;7.116;2022-08-01T15:08:32;27.90;57.70
5334;DHT22;2689;50.954;7.116;2022-08-01T15:11:00;27.90;59.10
5334;DHT22;2689;50.954;7.116;2022-08-01T15:13:27;27.80;60.80
5334;DHT22;2689;50.954;7.116;2022-08-01T15:15:54;27.60;61.90
5334;DHT22;2689;50.954;7.116;2022-08-01T15:18:20;27.60;62.70
5334;DHT22;2689;50.954;7.116;2022-08-01T15:20:47;27.30;62.60
5334;DHT22;2689;50.954;7.116;2022-08-01T15:23:14;27.20;63.30
5334;DHT22;2689;50.954;7.116;2022-08-01T15:25:42;27.20;63.60
5334;DHT22;2689;50.954;7.116;2022-08-01T15:28:09;27.10;63.40
5334;DHT22;2689;50.954;7.116;2022-08-01T15:30:36;27.20;63.40
5334;DHT22;2689;50.954;7.116;2022-08-01T15:33:03;27.20;63.70
5334;DHT22;2689;50.954;7.116;2022-08-01T15:35:30;27.10;63.70
5334;DHT22;2689;50.954;7.116;2022-08-01T15:37:57;27.10;64.00
5334;DHT22;2689;50.954;7.116;2022-08-01T15:40:24;27.00;64.40
5334;DHT22;2689;50.954;7.116;2022-08-01T15:42:53;27.10;65.10
5334;DHT22;2689;50.954;7.116;2022-08-01T15:45:20;27.30;65.20
5334;DHT22;2689;50.954;7.116;2022-08-01T15:47:46;27.40;65.20
5334;DHT22;2689;50.954;7.116;2022-08-01T15:50:13;27.60;65.00
5334;DHT22;2689;50.954;7.116;2022-08-01T15:52:40;27.50;64.80
5334;DHT22;2689;50.954;7.116;2022-08-01T15:55:07;27.30;65.10
5334;DHT22;2689;50.954;7.116;2022-08-01T15:57:34;27.10;65.70
5334;DHT22;2689;50.954;7.116;2022-08-01T16:00:03;27.00;66.40
5334;DHT22;2689;50.954;7.116;2022-08-01T16:02:30;27.00;66.60
5334;DHT22;2689;50.954;7.116;2022-08-01T16:04:57;26.80;67.20
5334;DHT22;2689;50.954;7.116;2022-08-01T16:07:24;26.70;67.10
5334;DHT22;2689;50.954;7.116;2022-08-01T16:09:51;26.50;68.80
5334;DHT22;2689;50.954;7.116;2022-08-01T16:12:18;26.60;69.10
5334;DHT22;2689;50.954;7.116;2022-08-01T16:14:45;26.60;69.00
5334;DHT22;2689;50.954;7.116;2022-08-01T16:17:13;26.80;69.10